createdAt,value
2023-03-11T00:02:14.327Z,6.90
2023-03-11T00:06:38.314Z,6.93
2023-03-11T00:11:04.343Z,6.89
2023-03-11T00:15:29.429Z,6.83
2023-03-11T00:19:56.176Z,6.79
2023-03-11T00:24:20.135Z,6.83
2023-03-11T00:28:47.378Z,6.83
2023-03-11T00:33:12.727Z,6.75
2023-03-11T00:37:36.255Z,6.60
2023-03-11T00:42:00.855Z,6.50
2023-03-11T00:46:25.214Z,6.45
2023-03-11T00:50:49.467Z,6.36
2023-03-11T00:55:12.095Z,6.25
2023-03-11T00:59:37.812Z,6.21
2023-03-11T01:04:05.715Z,6.24
2023-03-11T01:08:29.697Z,6.27
2023-03-11T01:12:47.438Z,6.27
2023-03-11T01:17:13.327Z,6.32
2023-03-11T01:21:38.210Z,6.32
2023-03-11T01:26:02.461Z,6.36
2023-03-11T01:30:33.238Z,6.45
2023-03-11T01:35:03.023Z,6.50
2023-03-11T01:39:28.970Z,6.52
2023-03-11T01:43:51.154Z,6.54
2023-03-11T01:48:15.144Z,6.50
2023-03-11T01:52:39.154Z,6.45
2023-03-11T01:57:04.232Z,6.45
2023-03-11T02:01:28.146Z,6.45
2023-03-11T02:05:54.085Z,6.45
2023-03-11T02:10:17.999Z,6.47
2023-03-11T02:14:41.858Z,6.43
2023-03-11T02:19:08.744Z,6.39
2023-03-11T02:23:33.643Z,6.34
2023-03-11T02:27:51.141Z,6.27
2023-03-11T02:32:20.144Z,6.16
2023-03-11T02:36:44.227Z,6.02
2023-03-11T02:41:28.501Z,5.93
2023-03-11T02:46:14.431Z,5.85
2023-03-11T02:50:38.202Z,5.76
2023-03-11T02:55:02.832Z,5.79
2023-03-11T02:59:27.829Z,5.84
2023-03-11T03:03:53.754Z,5.89
2023-03-11T03:08:24.520Z,5.88
2023-03-11T03:12:48.444Z,5.81
2023-03-11T03:17:12.588Z,5.82
2023-03-11T03:21:36.618Z,5.81
2023-03-11T03:26:00.563Z,5.73
2023-03-11T03:30:26.247Z,5.72
2023-03-11T03:34:50.079Z,5.69
2023-03-11T03:39:13.632Z,5.53
2023-03-11T03:43:37.612Z,5.44
2023-03-11T03:48:01.587Z,5.41
2023-03-11T03:52:25.553Z,5.38
2023-03-11T03:56:49.481Z,5.32
2023-03-11T04:01:13.473Z,5.22
2023-03-11T04:05:37.390Z,5.23
2023-03-11T04:10:02.373Z,5.23
2023-03-11T04:14:26.184Z,5.27
2023-03-11T04:18:50.074Z,5.31
2023-03-11T04:23:15.039Z,5.48
2023-03-11T04:27:28.851Z,5.51
2023-03-11T04:31:52.739Z,5.43
2023-03-11T04:36:18.678Z,5.36
2023-03-11T04:40:42.563Z,5.35
2023-03-11T04:45:06.583Z,5.22
2023-03-11T04:49:32.824Z,5.13
2023-03-11T04:53:55.723Z,5.00
2023-03-11T04:58:19.971Z,4.96
2023-03-11T05:02:46.855Z,4.86
2023-03-11T05:07:13.804Z,4.75
2023-03-11T05:11:38.702Z,4.76
2023-03-11T05:16:02.544Z,4.71
2023-03-11T05:20:27.392Z,4.70
2023-03-11T05:24:51.311Z,4.71
2023-03-11T05:29:15.283Z,4.70
2023-03-11T05:33:39.305Z,4.63
2023-03-11T05:38:04.516Z,4.53
2023-03-11T05:42:30.436Z,4.43
2023-03-11T05:46:53.295Z,4.28
2023-03-11T05:51:16.461Z,4.10
2023-03-11T05:55:40.327Z,3.92
2023-03-11T06:00:04.362Z,3.83
2023-03-11T06:04:28.454Z,3.79
2023-03-11T06:08:52.689Z,3.80
2023-03-11T06:13:16.728Z,3.85
2023-03-11T06:17:40.864Z,3.81
2023-03-11T06:22:04.862Z,3.78
2023-03-11T06:26:37.648Z,3.69
2023-03-11T06:31:01.630Z,3.59
2023-03-11T06:35:25.559Z,3.52
2023-03-11T06:39:49.524Z,3.43
2023-03-11T06:44:13.670Z,3.41
2023-03-11T06:48:30.231Z,3.40
2023-03-11T06:52:54.164Z,3.35
2023-03-11T06:57:18.043Z,3.30
2023-03-11T07:01:52.409Z,3.24
2023-03-11T07:06:16.376Z,3.19
2023-03-11T07:10:40.221Z,3.21
2023-03-11T07:14:54.187Z,3.62
2023-03-11T07:19:18.130Z,3.96
2023-03-11T07:23:42.038Z,4.21
2023-03-11T07:28:05.907Z,4.16
2023-03-11T07:32:29.896Z,4.21
2023-03-11T07:36:44.136Z,4.62
2023-03-11T07:41:08.264Z,4.97
2023-03-11T07:45:32.280Z,5.23
2023-03-11T07:49:57.317Z,5.34
2023-03-11T07:54:21.456Z,5.47
2023-03-11T07:58:46.050Z,5.17
2023-03-11T08:03:10.166Z,5.24
2023-03-11T08:07:34.914Z,5.07
2023-03-11T08:11:58.867Z,5.12
2023-03-11T08:16:22.753Z,5.36
2023-03-11T08:20:46.992Z,5.60
2023-03-11T08:25:10.926Z,5.87
2023-03-11T08:29:50.859Z,6.21
2023-03-11T08:34:14.832Z,6.08
2023-03-11T08:38:39.230Z,5.83
2023-03-11T08:43:04.240Z,5.68
2023-03-11T08:47:30.995Z,5.77
2023-03-11T08:51:55.150Z,5.98
2023-03-11T08:56:18.617Z,6.03
2023-03-11T09:00:42.194Z,5.79
2023-03-11T09:05:07.251Z,5.49
2023-03-11T09:09:34.190Z,5.13
2023-03-11T09:13:58.055Z,4.86
2023-03-11T09:18:21.983Z,4.57
2023-03-11T09:22:46.885Z,4.49
2023-03-11T09:27:10.765Z,4.45
2023-03-11T09:31:34.863Z,4.36
2023-03-11T09:35:58.992Z,4.31
2023-03-11T09:40:22.935Z,4.20
2023-03-11T09:45:01.863Z,4.37
2023-03-11T09:49:49.229Z,4.51
2023-03-11T09:54:21.767Z,4.39
2023-03-11T09:58:45.681Z,4.32
2023-03-11T10:03:09.609Z,4.78
2023-03-11T10:07:35.679Z,5.59
2023-03-11T10:12:16.653Z,5.71
2023-03-11T10:16:53.499Z,5.65
2023-03-11T10:22:05.532Z,5.42
2023-03-11T10:26:37.201Z,5.34
2023-03-11T10:31:09.329Z,5.25
2023-03-11T10:35:39.163Z,5.64
2023-03-11T10:40:15.322Z,5.80
2023-03-11T10:44:42.237Z,5.91
2023-03-11T10:49:06.336Z,6.21
2023-03-11T10:53:45.060Z,6.24
2023-03-11T11:03:30.950Z,6.80
2023-03-11T11:08:09.808Z,7.11
2023-03-11T11:12:45.820Z,7.09
2023-03-11T11:17:25.359Z,7.18
2023-03-11T11:27:04.775Z,7.41
2023-03-11T11:32:10.003Z,7.47
2023-03-11T11:36:42.466Z,7.40
2023-03-11T11:41:09.730Z,7.46
2023-03-11T11:45:34.737Z,7.46
2023-03-11T11:50:10.121Z,7.49
2023-03-11T11:55:00.383Z,7.40
2023-03-11T11:59:29.122Z,7.36
2023-03-11T12:04:11.144Z,6.78
2023-03-11T12:08:48.976Z,6.39
2023-03-11T12:13:29.125Z,6.20
2023-03-11T12:17:59.041Z,6.03
2023-03-11T12:22:40.086Z,6.00
2023-03-11T12:27:04.974Z,5.94
2023-03-11T12:31:40.153Z,5.82
2023-03-11T12:36:11.035Z,5.44
2023-03-11T12:40:41.683Z,5.21
2023-03-11T12:45:12.795Z,5.08
2023-03-11T12:49:48.441Z,4.85
2023-03-11T12:54:27.477Z,4.58
2023-03-11T12:58:51.446Z,4.42
2023-03-11T13:03:17.124Z,4.35
2023-03-11T13:07:53.468Z,4.34
2023-03-11T13:12:29.773Z,4.72
2023-03-11T13:16:53.688Z,5.18
2023-03-11T13:21:29.165Z,5.34
2023-03-11T13:26:05.996Z,5.56
2023-03-11T13:30:15.376Z,5.76
2023-03-11T13:35:23.442Z,5.73
2023-03-11T13:39:54.265Z,5.65
2023-03-11T13:44:05.349Z,5.53
2023-03-11T13:48:34.309Z,5.32
2023-03-11T13:53:09.591Z,5.27
2023-03-11T13:57:42.406Z,5.22
2023-03-11T14:02:15.004Z,5.14
2023-03-11T14:06:44.729Z,5.14
2023-03-11T14:11:18.734Z,5.17
2023-03-11T14:15:48.743Z,5.03
2023-03-11T14:20:15.734Z,4.84
2023-03-11T14:24:46.517Z,4.66
2023-03-11T14:29:10.622Z,4.56
2023-03-11T14:33:58.268Z,4.49
2023-03-11T14:38:22.096Z,4.44
2023-03-11T14:43:04.016Z,4.38
2023-03-11T14:47:27.886Z,4.34
2023-03-11T14:51:51.818Z,4.39
2023-03-11T14:56:09.615Z,4.39
2023-03-11T15:00:42.940Z,4.31
2023-03-11T15:05:10.575Z,4.26
2023-03-11T15:09:53.543Z,4.26
2023-03-11T15:14:17.531Z,4.11
2023-03-11T15:18:41.279Z,4.05
2023-03-11T15:23:07.222Z,3.99
2023-03-11T15:27:37.727Z,3.87
2023-03-11T15:32:01.678Z,3.71
2023-03-11T15:36:31.210Z,3.60
2023-03-11T15:41:06.990Z,3.52
2023-03-11T15:45:39.580Z,3.39
2023-03-11T15:49:50.616Z,3.25
2023-03-11T15:53:55.206Z,3.11
2023-03-11T15:58:21.971Z,2.97
2023-03-11T16:03:00.545Z,2.88
2023-03-11T16:07:38.828Z,2.76
2023-03-11T16:12:06.247Z,2.66
2023-03-11T16:16:31.108Z,2.62
2023-03-11T16:21:02.816Z,2.61
2023-03-11T16:25:27.546Z,2.53
2023-03-11T16:29:44.124Z,2.43
2023-03-11T16:34:08.577Z,2.35
2023-03-11T16:38:33.987Z,2.26
2023-03-11T16:42:58.363Z,2.22
2023-03-11T16:47:22.331Z,2.18
2023-03-11T16:51:47.277Z,2.06
2023-03-11T16:56:03.471Z,1.98
2023-03-11T17:00:28.652Z,1.86
2023-03-11T17:04:53.123Z,1.78
2023-03-11T17:09:17.184Z,1.71
2023-03-11T17:13:41.048Z,1.65
2023-03-11T17:18:07.903Z,1.59
2023-03-11T17:22:31.825Z,1.53
2023-03-11T17:26:55.760Z,1.45
2023-03-11T17:31:19.788Z,1.36
2023-03-11T17:35:43.918Z,1.28
2023-03-11T17:40:06.676Z,1.28
2023-03-11T17:44:44.603Z,1.36
2023-03-11T17:49:12.321Z,1.33
2023-03-11T17:53:36.311Z,1.32
2023-03-11T17:58:40.137Z,1.33
2023-03-11T18:03:04.078Z,1.31
2023-03-11T18:07:26.769Z,1.28
2023-03-11T18:11:50.697Z,1.30
2023-03-11T18:16:14.835Z,1.33
2023-03-11T18:20:41.454Z,1.31
2023-03-11T18:24:45.102Z,1.28
2023-03-11T18:29:09.011Z,1.23
2023-03-11T18:33:32.984Z,1.22
2023-03-11T18:37:56.903Z,1.22
2023-03-11T18:42:20.807Z,1.18
2023-03-11T18:46:44.308Z,1.14
2023-03-11T18:51:08.509Z,1.10
2023-03-11T18:55:25.208Z,1.06
2023-03-11T18:59:49.348Z,1.08
2023-03-11T19:04:13.906Z,1.08
2023-03-11T19:08:37.936Z,1.10
2023-03-11T19:12:52.300Z,1.15
2023-03-11T19:17:16.375Z,1.16
2023-03-11T19:21:40.384Z,1.19
2023-03-11T19:26:06.385Z,1.17
2023-03-11T19:30:30.790Z,1.16
2023-03-11T19:34:54.879Z,1.12
2023-03-11T19:39:18.880Z,1.06
2023-03-11T19:43:42.956Z,0.97
2023-03-11T19:48:07.067Z,0.93
2023-03-11T19:52:31.062Z,0.92
2023-03-11T19:56:55.188Z,0.93
2023-03-11T20:01:22.206Z,0.87
2023-03-11T20:05:46.456Z,0.85
2023-03-11T20:10:12.595Z,0.81
2023-03-11T20:14:36.781Z,0.73
2023-03-11T20:19:00.823Z,0.65
2023-03-11T20:23:24.515Z,0.61
2023-03-11T20:27:48.647Z,0.55
2023-03-11T20:32:15.453Z,0.49
2023-03-11T20:36:47.541Z,0.39
2023-03-11T20:41:12.885Z,0.29
2023-03-11T20:45:36.874Z,0.23
2023-03-11T20:50:00.964Z,0.23
2023-03-11T20:54:24.681Z,0.20
2023-03-11T20:58:48.370Z,0.15
2023-03-11T21:03:12.666Z,0.13
2023-03-11T21:07:36.758Z,0.06
2023-03-11T21:12:00.997Z,-0.06
2023-03-11T21:16:25.050Z,-0.16
2023-03-11T21:20:49.933Z,-0.25
2023-03-11T21:25:13.246Z,-0.33
2023-03-11T21:29:37.195Z,-0.39
2023-03-11T21:34:01.247Z,-0.39
2023-03-11T21:38:25.496Z,-0.40
2023-03-11T21:42:49.611Z,-0.42
2023-03-11T21:47:13.688Z,-0.48
2023-03-11T21:51:57.728Z,-0.51
2023-03-11T21:56:42.786Z,-0.55
2023-03-11T22:01:07.229Z,-0.55
2023-03-11T22:05:24.456Z,-0.58
2023-03-11T22:09:48.647Z,-0.59
2023-03-11T22:14:13.093Z,-0.60
2023-03-11T22:18:38.174Z,-0.68
2023-03-11T22:23:01.113Z,-0.74
2023-03-11T22:27:25.025Z,-0.80
2023-03-11T22:31:53.542Z,-0.85
2023-03-11T22:36:37.458Z,-0.89
2023-03-11T22:41:21.496Z,-0.93
2023-03-11T22:45:45.620Z,-0.99
2023-03-11T22:50:09.549Z,-1.04
2023-03-11T22:54:33.732Z,-1.09
2023-03-11T22:59:17.584Z,-1.12
2023-03-11T23:03:41.548Z,-1.15
2023-03-11T23:08:06.024Z,-1.17
2023-03-11T23:12:29.965Z,-1.19
2023-03-11T23:16:59.616Z,-1.23
2023-03-11T23:21:23.553Z,-1.22
2023-03-11T23:25:47.555Z,-1.22
2023-03-11T23:30:11.552Z,-1.19
2023-03-11T23:34:36.480Z,-1.18
2023-03-11T23:39:00.363Z,-1.17
2023-03-11T23:43:25.651Z,-1.13
2023-03-11T23:47:49.596Z,-1.09
2023-03-11T23:52:13.890Z,-1.09
2023-03-11T23:56:38.802Z,-1.11
